Time;durP1;ratioP1;P1;durP2;ratioP2;P2;SDS_P1;SDS_P2;PMS_P1;PMS_P2;Temp;Humidity;BMP_temperature;BMP_pressure;BME280_temperature;BME280_humidity;BME280_pressure;Samples;Min_cycle;Max_cycle;Signal;HPM_P1;HPM_P2
2023/03/27 00:00:19;;;;;;;6.88;1.95;;;2.00;99.90;;;;;;5068912;28;20051;-77
2023/03/27 00:02:48;;;;;;;7.60;1.60;;;1.90;99.90;;;;;;5052801;28;20092;-78
2023/03/27 00:05:21;;;;;;;9.48;1.63;;;1.90;99.90;;;;;;5066230;28;20461;-78
2023/03/27 00:07:49;;;;;;;7.95;2.00;;;1.90;99.90;;;;;;5082801;28;20383;-77
2023/03/27 00:10:16;;;;;;;3.30;1.30;;;1.90;99.90;;;;;;5066922;28;20402;-78
2023/03/27 00:12:45;;;;;;;8.60;1.83;;;1.80;99.90;;;;;;5087193;28;20131;-78
2023/03/27 00:15:17;;;;;;;2.85;1.60;;;1.80;99.90;;;;;;5067984;28;20055;-77
2023/03/27 00:17:45;;;;;;;2.60;1.45;;;1.70;99.90;;;;;;5069332;28;20054;-78
2023/03/27 00:20:16;;;;;;;6.75;1.35;;;1.70;99.90;;;;;;5068875;28;20492;-78
2023/03/27 00:22:41;;;;;;;8.30;1.52;;;1.70;99.90;;;;;;5067156;28;20063;-78
2023/03/27 00:25:09;;;;;;;4.70;1.75;;;1.70;99.90;;;;;;5087084;28;20047;-77
2023/03/27 00:27:34;;;;;;;7.45;1.58;;;1.70;99.90;;;;;;5088715;28;20155;-77
2023/03/27 00:30:00;;;;;;;6.35;2.78;;;1.70;99.90;;;;;;5069542;28;20115;-78
2023/03/27 00:32:26;;;;;;;4.78;1.58;;;1.70;99.90;;;;;;5085352;28;20462;-78
2023/03/27 00:34:51;;;;;;;4.63;1.70;;;1.70;99.90;;;;;;5088293;28;20059;-78
2023/03/27 00:37:17;;;;;;;6.72;1.90;;;1.70;99.90;;;;;;5068322;28;20052;-77
2023/03/27 00:39:43;;;;;;;10.82;2.03;;;1.70;99.90;;;;;;5088957;28;20046;-77
2023/03/27 00:42:12;;;;;;;8.50;1.30;;;1.80;99.90;;;;;;5069215;28;20093;-78
2023/03/27 00:44:38;;;;;;;4.35;1.42;;;1.80;99.90;;;;;;5055936;28;20159;-77
2023/03/27 00:47:06;;;;;;;3.70;1.52;;;1.80;99.90;;;;;;5085957;28;20132;-78
2023/03/27 00:49:35;;;;;;;5.88;1.40;;;1.70;99.90;;;;;;5068904;28;20050;-78
2023/03/27 00:52:03;;;;;;;6.53;1.55;;;1.80;99.90;;;;;;5085970;28;20437;-78
2023/03/27 00:54:34;;;;;;;5.25;1.80;;;1.70;99.90;;;;;;5087511;28;20761;-78
2023/03/27 00:57:05;;;;;;;3.97;1.77;;;1.70;99.90;;;;;;5067200;28;20118;-78
2023/03/27 00:59:34;;;;;;;9.05;2.13;;;1.60;99.90;;;;;;5052104;28;20299;-78
2023/03/27 01:02:02;;;;;;;8.65;1.80;;;1.50;99.90;;;;;;5060758;28;20073;-78
2023/03/27 01:04:30;;;;;;;6.80;1.40;;;1.50;99.90;;;;;;5067807;28;20048;-78
2023/03/27 01:06:57;;;;;;;2.63;1.50;;;1.50;99.90;;;;;;5066058;28;20043;-79
2023/03/27 01:09:25;;;;;;;5.95;1.48;;;1.50;99.90;;;;;;5067074;28;20040;-79
2023/03/27 01:12:15;;;;;;;8.60;1.98;;;1.40;99.90;;;;;;5046758;28;20077;-79
2023/03/27 01:14:59;;;;;;;4.65;1.67;;;1.40;99.90;;;;;;5085020;28;20210;-79
2023/03/27 01:17:40;;;;;;;5.80;1.88;;;1.40;99.90;;;;;;5086062;28;20044;-78
2023/03/27 01:20:29;;;;;;;4.57;1.50;;;1.40;99.90;;;;;;5068913;28;20452;-79
2023/03/27 01:23:18;;;;;;;4.72;1.45;;;1.30;99.90;;;;;;5084263;28;20048;-78
2023/03/27 01:26:19;;;;;;;8.40;1.67;;;1.30;99.90;;;;;;5066994;28;20036;-78
2023/03/27 01:29:02;;;;;;;6.78;1.75;;;1.20;99.90;;;;;;4969073;28;20093;-78
2023/03/27 01:31:56;;;;;;;5.93;1.38;;;1.20;99.90;;;;;;5044074;28;20479;-78
2023/03/27 01:34:41;;;;;;;6.25;1.85;;;1.20;99.90;;;;;;5067868;28;20058;-79
2023/03/27 01:37:28;;;;;;;7.70;1.45;;;1.10;99.90;;;;;;5068921;28;20056;-78
2023/03/27 01:40:11;;;;;;;4.85;1.35;;;1.10;99.90;;;;;;5067212;28;20059;-78
2023/03/27 01:42:50;;;;;;;3.28;1.17;;;1.20;99.90;;;;;;5067113;28;20080;-78
2023/03/27 01:45:20;;;;;;;5.07;1.75;;;1.20;99.90;;;;;;5061062;28;20136;-78
2023/03/27 01:48:07;;;;;;;4.45;1.25;;;1.20;99.90;;;;;;5065749;28;20084;-78
2023/03/27 01:50:45;;;;;;;6.10;1.15;;;1.20;99.90;;;;;;5068178;28;20382;-78
2023/03/27 01:53:28;;;;;;;6.80;1.80;;;1.20;99.90;;;;;;5065702;28;20056;-78
2023/03/27 01:56:04;;;;;;;2.92;1.25;;;1.30;99.90;;;;;;5067237;28;20109;-78
2023/03/27 01:58:36;;;;;;;8.13;1.20;;;1.30;99.90;;;;;;5086138;28;20105;-78
2023/03/27 02:01:04;;;;;;;2.90;1.23;;;1.30;99.90;;;;;;5051493;28;20530;-78
2023/03/27 02:03:47;;;;;;;6.10;1.42;;;1.30;99.90;;;;;;5068460;28;20047;-78
2023/03/27 02:06:23;;;;;;;3.75;1.20;;;1.30;99.90;;;;;;5085895;28;20473;-78
2023/03/27 02:08:56;;;;;;;2.75;0.75;;;1.40;99.90;;;;;;5063335;28;20094;-79
2023/03/27 02:11:27;;;;;;;4.65;1.00;;;1.40;99.90;;;;;;5068197;28;20093;-79
2023/03/27 02:13:59;;;;;;;5.75;1.30;;;1.40;99.90;;;;;;5051456;28;20028;-79
2023/03/27 02:16:32;;;;;;;7.33;1.70;;;1.40;99.90;;;;;;5066703;28;20073;-78
2023/03/27 02:19:07;;;;;;;3.70;1.35;;;1.40;99.90;;;;;;5066404;28;20355;-78
2023/03/27 02:21:33;;;;;;;3.75;1.30;;;1.30;99.90;;;;;;5050491;28;20118;-78
2023/03/27 02:24:00;;;;;;;4.35;1.27;;;1.30;99.90;;;;;;5067353;28;20044;-78
2023/03/27 02:26:29;;;;;;;6.35;1.90;;;1.30;99.90;;;;;;5088513;28;20044;-78
2023/03/27 02:29:18;;;;;;;4.05;1.00;;;1.30;99.90;;;;;;5086459;28;20096;-78
2023/03/27 02:32:11;;;;;;;6.78;1.67;;;1.30;99.90;;;;;;5046581;28;20054;-79
2023/03/27 02:34:57;;;;;;;3.35;1.15;;;1.30;99.90;;;;;;5070154;28;20044;-78
2023/03/27 02:37:53;;;;;;;4.93;1.38;;;1.30;99.90;;;;;;5088553;28;20059;-79
2023/03/27 02:40:46;;;;;;;4.07;1.30;;;1.20;99.90;;;;;;5073931;28;20542;-78
2023/03/27 02:43:19;;;;;;;;;;;1.20;99.90;;;;;;5071959;28;20048;-79
2023/03/27 02:45:57;;;;;;;4.68;1.50;;;1.20;99.90;;;;;;5091619;28;19930;-79
2023/03/27 02:48:33;;;;;;;5.20;1.00;;;1.20;99.90;;;;;;5086331;28;20508;-79
2023/03/27 02:51:05;;;;;;;3.90;1.20;;;1.20;99.90;;;;;;5070673;28;20048;-79
2023/03/27 02:53:38;;;;;;;7.85;1.83;;;1.30;99.90;;;;;;5059994;28;20056;-79
2023/03/27 02:56:08;;;;;;;5.03;1.30;;;1.30;99.90;;;;;;5086971;28;20048;-79
2023/03/27 02:58:46;;;;;;;2.90;1.40;;;1.30;99.90;;;;;;5089722;28;20040;-79
2023/03/27 03:01:16;;;;;;;8.43;1.92;;;1.30;99.90;;;;;;5054557;28;20520;-79
2023/03/27 03:03:52;;;;;;;7.20;1.20;;;1.40;99.90;;;;;;5067365;28;20081;-79
2023/03/27 03:06:19;;;;;;;6.50;1.33;;;1.40;99.90;;;;;;5086059;28;20047;-78
2023/03/27 03:08:45;;;;;;;6.45;0.98;;;1.50;99.90;;;;;;5069272;28;20271;-78
2023/03/27 03:11:13;;;;;;;6.15;1.45;;;1.50;99.90;;;;;;5071972;28;20502;-78
2023/03/27 03:13:40;;;;;;;2.33;1.10;;;1.60;99.90;;;;;;5051425;28;20044;-78
2023/03/27 03:16:07;;;;;;;5.55;1.30;;;1.60;99.90;;;;;;5071299;28;20056;-78
2023/03/27 03:18:33;;;;;;;3.97;1.27;;;1.60;99.90;;;;;;5066802;28;20044;-78
2023/03/27 03:20:59;;;;;;;3.78;0.88;;;1.60;99.90;;;;;;5071828;28;20104;-78
2023/03/27 03:23:25;;;;;;;4.50;1.25;;;1.60;99.90;;;;;;5069159;28;20043;-78
2023/03/27 03:25:55;;;;;;;5.82;1.25;;;1.50;99.90;;;;;;5071933;28;20052;-78
2023/03/27 03:28:28;;;;;;;5.10;1.52;;;1.50;99.90;;;;;;5085634;28;20056;-78
2023/03/27 03:30:57;;;;;;;3.90;1.05;;;1.50;99.90;;;;;;5087469;28;20056;-79
2023/03/27 03:33:24;;;;;;;3.47;1.20;;;1.40;99.90;;;;;;5067166;28;20048;-78
2023/03/27 03:35:50;;;;;;;4.18;1.13;;;1.40;99.90;;;;;;5072104;28;20079;-78
2023/03/27 03:38:23;;;;;;;5.30;1.33;;;1.30;99.90;;;;;;5067202;28;20094;-79
2023/03/27 03:40:51;;;;;;;4.35;1.13;;;1.30;99.90;;;;;;5088340;28;20040;-78
2023/03/27 03:43:19;;;;;;;4.50;1.75;;;1.30;99.90;;;;;;5070135;28;20070;-79
2023/03/27 03:45:44;;;;;;;5.38;1.13;;;1.20;99.90;;;;;;5072526;28;20133;-79
2023/03/27 03:48:10;;;;;;;4.13;1.13;;;1.20;99.90;;;;;;5084270;28;20474;-78
2023/03/27 03:50:35;;;;;;;3.95;0.93;;;1.20;99.90;;;;;;5085802;28;20054;-78
2023/03/27 03:53:01;;;;;;;2.80;1.10;;;1.20;99.90;;;;;;5088854;28;20139;-79
2023/03/27 03:55:27;;;;;;;5.18;1.00;;;1.20;99.90;;;;;;5087937;28;20142;-79
2023/03/27 03:57:52;;;;;;;4.57;1.33;;;1.30;99.90;;;;;;5070846;28;20040;-78
2023/03/27 04:00:18;;;;;;;3.92;1.10;;;1.30;99.90;;;;;;5068791;28;20077;-79
2023/03/27 04:02:47;;;;;;;3.17;1.13;;;1.30;99.90;;;;;;5068761;28;20036;-78
2023/03/27 04:05:13;;;;;;;5.25;1.08;;;1.30;99.90;;;;;;5084150;28;20609;-78
2023/03/27 04:07:39;;;;;;;7.03;1.15;;;1.30;99.90;;;;;;5069836;28;20154;-78
2023/03/27 04:10:07;;;;;;;7.15;1.10;;;1.30;99.90;;;;;;5086168;28;20040;-79
2023/03/27 04:12:33;;;;;;;4.15;1.30;;;1.30;99.90;;;;;;5081162;28;20063;-79
2023/03/27 04:14:58;;;;;;;3.83;1.20;;;1.30;99.90;;;;;;5065002;28;20111;-78
2023/03/27 04:17:27;;;;;;;7.20;1.55;;;1.20;99.90;;;;;;5069587;28;20764;-78
2023/03/27 04:19:56;;;;;;;5.82;1.08;;;1.20;99.90;;;;;;5070934;28;20048;-79
2023/03/27 04:22:22;;;;;;;5.32;1.23;;;1.20;99.90;;;;;;5076108;28;20043;-79
2023/03/27 04:24:52;;;;;;;3.72;1.20;;;1.20;99.90;;;;;;5068643;28;20375;-79
2023/03/27 04:27:20;;;;;;;3.83;1.05;;;1.10;99.90;;;;;;5069244;28;20036;-78
2023/03/27 04:29:46;;;;;;;7.03;1.50;;;1.10;99.90;;;;;;5053420;28;20573;-78
2023/03/27 04:32:17;;;;;;;4.97;1.20;;;1.10;99.90;;;;;;5085947;28;20051;-79
2023/03/27 04:34:44;;;;;;;7.22;1.70;;;1.10;99.90;;;;;;5066293;28;20048;-78
2023/03/27 04:37:11;;;;;;;6.95;1.20;;;1.10;99.90;;;;;;5052935;28;20051;-78
2023/03/27 04:39:41;;;;;;;3.40;1.25;;;1.10;99.90;;;;;;5087537;28;20064;-79
2023/03/27 04:42:08;;;;;;;3.90;1.05;;;1.10;99.90;;;;;;5067274;28;20056;-78
2023/03/27 04:44:33;;;;;;;4.13;1.20;;;1.20;99.90;;;;;;5069556;28;20078;-78
2023/03/27 04:47:01;;;;;;;6.40;1.83;;;1.30;99.90;;;;;;5085066;28;20082;-78
2023/03/27 04:49:29;;;;;;;2.92;1.00;;;1.30;99.90;;;;;;5069875;28;20052;-78
2023/03/27 04:51:56;;;;;;;3.35;1.42;;;1.30;99.90;;;;;;5086992;28;20113;-78
2023/03/27 04:54:22;;;;;;;3.33;0.80;;;1.40;99.90;;;;;;5084152;28;20051;-79
2023/03/27 04:56:49;;;;;;;5.22;1.40;;;1.40;99.90;;;;;;5069035;28;20513;-78
2023/03/27 04:59:14;;;;;;;6.57;1.10;;;1.40;99.90;;;;;;5068051;28;20047;-78
2023/03/27 05:01:40;;;;;;;7.72;1.50;;;1.40;99.90;;;;;;5087581;28;20043;-78
2023/03/27 05:04:06;;;;;;;4.30;1.30;;;1.40;99.90;;;;;;5067736;28;20568;-78
2023/03/27 05:06:34;;;;;;;3.60;1.20;;;1.40;99.90;;;;;;5086261;28;20131;-78
2023/03/27 05:08:59;;;;;;;6.68;2.17;;;1.50;99.90;;;;;;5084411;28;20043;-79
2023/03/27 05:11:25;;;;;;;5.90;1.60;;;1.40;99.90;;;;;;5066991;28;20040;-78
2023/03/27 05:13:51;;;;;;;5.68;1.58;;;1.40;99.90;;;;;;5050950;28;20046;-79
2023/03/27 05:16:17;;;;;;;4.60;1.25;;;1.40;99.90;;;;;;5053588;28;20047;-78
2023/03/27 05:18:44;;;;;;;7.75;1.60;;;1.40;99.90;;;;;;5082636;28;20040;-79
2023/03/27 05:21:11;;;;;;;5.30;1.77;;;1.30;99.90;;;;;;5082545;28;20067;-79
2023/03/27 05:23:39;;;;;;;3.65;1.17;;;1.30;99.90;;;;;;5066359;28;20044;-79
2023/03/27 05:26:05;;;;;;;2.85;1.10;;;1.30;99.90;;;;;;5052768;28;20051;-79
2023/03/27 05:28:30;;;;;;;6.35;1.25;;;1.30;99.90;;;;;;5088085;28;20115;-79
2023/03/27 05:30:56;;;;;;;5.07;1.45;;;1.20;99.90;;;;;;5082270;28;20377;-79
2023/03/27 05:33:22;;;;;;;6.95;1.75;;;1.20;99.90;;;;;;5066914;28;20048;-79
2023/03/27 05:35:51;;;;;;;8.55;1.90;;;1.20;99.90;;;;;;5052073;28;20051;-79
2023/03/27 05:38:18;;;;;;;6.43;1.80;;;1.20;99.90;;;;;;5086935;28;20117;-79
2023/03/27 05:40:44;;;;;;;10.90;1.98;;;1.20;99.90;;;;;;5070249;28;20760;-80
2023/03/27 05:43:10;;;;;;;6.70;1.60;;;1.20;99.90;;;;;;5069517;28;20080;-80
2023/03/27 05:45:36;;;;;;;6.78;1.48;;;1.20;99.90;;;;;;5070033;28;20082;-79
2023/03/27 05:48:02;;;;;;;4.60;1.40;;;1.10;99.90;;;;;;5088177;28;20044;-79
2023/03/27 05:50:34;;;;;;;6.40;1.77;;;1.10;99.90;;;;;;5086991;28;20573;-79
2023/03/27 05:53:03;;;;;;;3.88;1.65;;;1.10;99.90;;;;;;5052738;28;20052;-79
2023/03/27 05:55:30;;;;;;;5.93;1.52;;;1.10;99.90;;;;;;5069733;28;20131;-79
2023/03/27 05:57:55;;;;;;;8.07;1.63;;;1.20;99.90;;;;;;5086152;28;20044;-79
2023/03/27 06:00:24;;;;;;;2.85;1.52;;;1.20;99.90;;;;;;5067780;28;20047;-79
2023/03/27 06:02:53;;;;;;;4.00;1.98;;;1.30;99.90;;;;;;5085147;28;20417;-79
2023/03/27 06:05:19;;;;;;;6.38;1.77;;;1.30;99.90;;;;;;5069166;28;20040;-79
2023/03/27 06:07:48;;;;;;;5.78;1.90;;;1.40;99.90;;;;;;5068868;28;20105;-79
2023/03/27 06:10:16;;;;;;;3.55;2.10;;;1.50;99.90;;;;;;5067297;28;20687;-80
2023/03/27 06:12:43;;;;;;;6.47;1.90;;;1.50;99.90;;;;;;5069573;28;20040;-79
2023/03/27 06:15:10;;;;;;;5.55;2.50;;;1.70;99.90;;;;;;5080570;28;20044;-77
2023/03/27 06:17:38;;;;;;;4.32;1.92;;;1.80;99.90;;;;;;5085337;28;20039;-77
2023/03/27 06:20:13;;;;;;;3.42;1.27;;;2.00;99.90;;;;;;5069572;28;20043;-77
2023/03/27 06:22:47;;;;;;;6.75;1.38;;;2.10;99.90;;;;;;5069136;28;20752;-77
2023/03/27 06:25:14;;;;;;;3.97;1.30;;;2.20;99.90;;;;;;5087026;28;20061;-77
2023/03/27 06:27:45;;;;;;;3.20;1.00;;;2.20;99.90;;;;;;5087566;28;20106;-77
2023/03/27 06:30:12;;;;;;;7.55;1.00;;;2.20;99.90;;;;;;5085155;28;20051;-78
2023/03/27 06:32:50;;;;;;;3.80;1.50;;;2.20;99.90;;;;;;5087032;28;20435;-78
2023/03/27 06:35:20;;;;;;;3.47;1.00;;;2.20;99.90;;;;;;5087380;28;20474;-78
2023/03/27 06:37:49;;;;;;;3.13;0.95;;;2.30;99.90;;;;;;5064023;28;20525;-78
2023/03/27 06:40:21;;;;;;;3.17;1.20;;;2.30;99.90;;;;;;5066507;28;20045;-79
2023/03/27 06:42:55;;;;;;;2.53;0.97;;;2.30;99.90;;;;;;5065320;28;20084;-80
2023/03/27 06:45:27;;;;;;;1.95;1.17;;;2.30;99.90;;;;;;5065085;28;20394;-80
2023/03/27 06:47:57;;;;;;;3.60;0.93;;;2.30;99.90;;;;;;5064926;28;20041;-78
2023/03/27 06:50:25;;;;;;;2.30;0.90;;;2.40;99.90;;;;;;5046428;28;20132;-77
2023/03/27 06:52:51;;;;;;;2.63;1.40;;;2.30;99.90;;;;;;5056558;28;20500;-77
2023/03/27 06:55:18;;;;;;;3.33;1.08;;;2.40;99.90;;;;;;5045621;28;20127;-77
2023/03/27 06:57:46;;;;;;;1.52;0.93;;;2.40;99.90;;;;;;5045542;28;20057;-77
2023/03/27 07:00:15;;;;;;;5.03;1.40;;;2.50;99.90;;;;;;5045473;28;20503;-77
2023/03/27 07:02:41;;;;;;;4.10;1.10;;;2.50;99.90;;;;;;5047053;28;20092;-78
2023/03/27 07:05:07;;;;;;;2.80;1.13;;;2.60;99.90;;;;;;5053706;28;20084;-79
2023/03/27 07:07:33;;;;;;;3.50;1.30;;;2.60;99.90;;;;;;5065458;28;20048;-79
2023/03/27 07:09:59;;;;;;;3.47;1.20;;;2.70;99.90;;;;;;5067103;28;20188;-78
2023/03/27 07:12:25;;;;;;;3.70;1.38;;;2.70;99.90;;;;;;5066252;28;20360;-78
2023/03/27 07:14:51;;;;;;;3.72;1.70;;;2.80;99.90;;;;;;5067185;28;20121;-78
2023/03/27 07:17:17;;;;;;;4.53;1.67;;;2.90;99.90;;;;;;5052646;28;20052;-78
2023/03/27 07:19:42;;;;;;;4.30;1.65;;;3.00;99.90;;;;;;5068876;28;20351;-78
2023/03/27 07:22:08;;;;;;;5.07;1.15;;;3.10;99.90;;;;;;5068652;28;20123;-78
2023/03/27 07:24:33;;;;;;;3.92;1.70;;;3.10;99.90;;;;;;5069262;28;20041;-78
2023/03/27 07:26:59;;;;;;;2.90;1.30;;;3.20;99.90;;;;;;5068934;28;20049;-78
2023/03/27 07:29:25;;;;;;;3.38;1.88;;;3.30;99.90;;;;;;5069582;28;20048;-78
2023/03/27 07:31:50;;;;;;;4.03;1.30;;;3.40;99.90;;;;;;5070137;28;20060;-78
2023/03/27 07:34:16;;;;;;;4.20;1.30;;;3.50;99.90;;;;;;5068692;28;20063;-78
2023/03/27 07:36:42;;;;;;;5.80;1.40;;;3.60;99.90;;;;;;5078135;28;20048;-78
2023/03/27 07:39:08;;;;;;;4.82;1.50;;;3.70;99.90;;;;;;5071508;28;20051;-78
2023/03/27 07:41:34;;;;;;;4.95;1.77;;;3.80;99.90;;;;;;5072244;28;20083;-78
2023/03/27 07:44:00;;;;;;;3.03;1.40;;;3.90;99.90;;;;;;5090556;28;20083;-78
2023/03/27 07:46:26;;;;;;;3.85;1.67;;;4.00;99.90;;;;;;5070507;28;20493;-78
2023/03/27 07:48:54;;;;;;;5.78;1.77;;;4.10;99.90;;;;;;5055305;28;20056;-80
2023/03/27 07:51:21;;;;;;;5.45;1.90;;;4.20;99.90;;;;;;5089682;28;20052;-82
2023/03/27 07:53:48;;;;;;;4.55;1.73;;;4.30;99.90;;;;;;5071584;28;20490;-83
2023/03/27 07:56:13;;;;;;;5.47;1.83;;;4.40;99.90;;;;;;5089854;28;20496;-81
2023/03/27 07:58:39;;;;;;;5.60;1.35;;;4.50;99.90;;;;;;5069405;28;20052;-78
2023/03/27 08:01:06;;;;;;;7.10;1.73;;;4.60;99.90;;;;;;5070253;28;20120;-78
2023/03/27 08:03:32;;;;;;;5.93;1.88;;;4.60;99.90;;;;;;5069512;28;20498;-77
2023/03/27 08:05:59;;;;;;;3.63;1.48;;;4.80;99.90;;;;;;5088769;28;20040;-77
2023/03/27 08:08:25;;;;;;;3.63;1.55;;;5.00;99.90;;;;;;5085352;28;20051;-78
2023/03/27 08:10:53;;;;;;;3.03;1.30;;;5.20;99.90;;;;;;5086843;28;20032;-78
2023/03/27 08:13:19;;;;;;;4.78;1.42;;;5.50;99.90;;;;;;5082386;28;20089;-78
2023/03/27 08:15:45;;;;;;;7.60;1.63;;;5.50;99.90;;;;;;5090770;28;20512;-77
2023/03/27 08:18:11;;;;;;;4.97;1.45;;;5.40;99.90;;;;;;5069251;28;20048;-78
2023/03/27 08:20:37;;;;;;;3.60;1.40;;;5.10;99.90;;;;;;5057080;28;20040;-79
2023/03/27 08:23:03;;;;;;;3.55;1.00;;;4.50;99.90;;;;;;5087221;28;20052;-80
2023/03/27 08:25:31;;;;;;;2.78;1.35;;;4.00;99.90;;;;;;5070928;28;20101;-79
2023/03/27 08:27:58;;;;;;;1.80;1.05;;;3.60;99.90;;;;;;5054301;28;20093;-76
2023/03/27 08:30:24;;;;;;;4.03;1.30;;;3.30;99.90;;;;;;5089194;28;20555;-77
2023/03/27 08:32:50;;;;;;;4.40;1.38;;;3.20;99.90;;;;;;5088857;28;20074;-80
2023/03/27 08:35:16;;;;;;;2.90;1.40;;;3.10;99.90;;;;;;5071577;28;20123;-81
2023/03/27 08:37:42;;;;;;;3.92;2.08;;;3.10;99.90;;;;;;5070730;28;20055;-81
2023/03/27 08:40:24;;;;;;;5.65;1.20;;;3.10;99.90;;;;;;5054341;28;20332;-80
2023/03/27 08:42:54;;;;;;;1.52;1.10;;;3.10;99.90;;;;;;5070694;28;20052;-79
2023/03/27 08:45:26;;;;;;;3.50;1.00;;;3.20;99.90;;;;;;5054513;28;20462;-80
2023/03/27 08:48:06;;;;;;;2.80;1.10;;;3.30;99.90;;;;;;5069528;28;20199;-81
2023/03/27 08:50:51;;;;;;;5.03;1.30;;;3.50;99.90;;;;;;5068328;28;20089;-80
2023/03/27 08:53:45;;;;;;;4.50;1.25;;;3.70;99.90;;;;;;5049313;28;20403;-80
2023/03/27 08:56:16;;;;;;;6.43;2.00;;;3.90;99.90;;;;;;5050322;28;20062;-80
2023/03/27 08:58:43;;;;;;;5.25;2.60;;;4.90;99.90;;;;;;5056292;28;20234;-80
2023/03/27 09:01:17;;;;;;;7.93;4.43;;;4.20;99.90;;;;;;5069330;28;20409;-82
2023/03/27 09:03:52;;;;;;;8.25;3.83;;;4.40;99.90;;;;;;5087703;28;20040;-82
2023/03/27 09:06:37;;;;;;;16.02;6.72;;;4.60;99.90;;;;;;5087381;28;20112;-82
2023/03/27 09:09:21;;;;;;;5.53;2.35;;;4.80;99.90;;;;;;5075448;28;20051;-83
2023/03/27 09:12:06;;;;;;;3.30;1.40;;;5.00;99.90;;;;;;5088769;28;20079;-82
2023/03/27 09:14:35;;;;;;;5.38;1.35;;;5.20;99.90;;;;;;5088970;28;20494;-83
2023/03/27 09:17:23;;;;;;;2.45;1.55;;;5.40;99.90;;;;;;5069972;28;20089;-83
2023/03/27 09:20:04;;;;;;;3.42;1.33;;;5.60;99.90;;;;;;5087786;28;20044;-81
2023/03/27 09:22:39;;;;;;;2.60;1.52;;;5.90;99.90;;;;;;5067957;28;20119;-81
2023/03/27 09:25:19;;;;;;;1.67;1.10;;;5.90;99.90;;;;;;5070240;28;20052;-82
2023/03/27 09:27:48;;;;;;;3.60;1.67;;;5.30;99.90;;;;;;5087930;28;20044;-81
2023/03/27 09:30:20;;;;;;;0.93;0.93;;;5.00;99.90;;;;;;5070063;28;20517;-81
2023/03/27 09:32:52;;;;;;;2.03;0.98;;;4.60;99.90;;;;;;5052696;28;20085;-83
2023/03/27 09:35:19;;;;;;;;;;;4.50;99.90;;;;;;5055996;28;20083;-80
2023/03/27 09:37:57;;;;;;;1.25;1.10;;;4.40;99.90;;;;;;5081879;28;20018;-81
2023/03/27 09:40:43;;;;;;;2.47;1.10;;;4.50;99.90;;;;;;5087953;28;20056;-81
2023/03/27 09:43:17;;;;;;;1.25;0.90;;;4.80;99.90;;;;;;5069681;28;20044;-81
2023/03/27 09:45:44;;;;;;;1.90;1.00;;;4.90;99.90;;;;;;5088691;28;20540;-81
2023/03/27 09:48:27;;;;;;;2.33;0.90;;;5.20;99.90;;;;;;5070053;28;20461;-81
2023/03/27 09:50:53;;;;;;;1.00;0.90;;;5.20;99.90;;;;;;5070327;28;20051;-81
2023/03/27 09:53:21;;;;;;;2.50;0.90;;;5.40;99.90;;;;;;5087353;28;20047;-81
2023/03/27 09:55:55;;;;;;;3.00;1.20;;;5.50;99.90;;;;;;5087517;28;20150;-82
2023/03/27 09:58:27;;;;;;;1.80;1.00;;;5.60;99.90;;;;;;5078733;28;20582;-82
2023/03/27 10:01:14;;;;;;;3.47;3.17;;;5.80;99.90;;;;;;5068817;28;20083;-82
2023/03/27 10:03:47;;;;;;;1.52;0.95;;;6.00;99.90;;;;;;5069285;28;20051;-80
2023/03/27 10:06:15;;;;;;;2.35;1.00;;;6.00;99.90;;;;;;5054031;28;20152;-83
2023/03/27 10:08:52;;;;;;;3.28;1.10;;;6.30;99.90;;;;;;5069176;28;20040;-84
2023/03/27 10:11:27;;;;;;;3.28;1.20;;;6.40;99.90;;;;;;5064972;28;20454;-85
2023/03/27 10:13:54;;;;;;;3.47;1.08;;;6.70;99.90;;;;;;5067658;28;20126;-84
2023/03/27 10:16:21;;;;;;;1.77;0.57;;;6.80;99.90;;;;;;5087036;28;20496;-85
2023/03/27 10:18:51;;;;;;;3.75;1.10;;;7.20;99.90;;;;;;5049988;28;20056;-84
2023/03/27 10:21:30;;;;;;;3.20;1.23;;;7.20;99.90;;;;;;5033652;28;20380;-82
2023/03/27 10:24:05;;;;;;;4.03;1.13;;;7.20;99.90;;;;;;5050139;28;20073;-81
2023/03/27 10:26:32;;;;;;;3.60;1.25;;;7.10;99.90;;;;;;5066646;28;20048;-82
2023/03/27 10:29:05;;;;;;;3.53;1.40;;;7.30;99.90;;;;;;5087623;28;20062;-84
2023/03/27 10:31:31;;;;;;;3.55;1.05;;;7.40;99.90;;;;;;5052902;28;20075;-84
2023/03/27 10:34:00;;;;;;;3.40;1.02;;;7.60;99.90;;;;;;5068058;28;20502;-84
2023/03/27 10:36:32;;;;;;;2.13;1.05;;;7.60;99.90;;;;;;5067697;28;20139;-84
2023/03/27 10:39:04;;;;;;;5.20;1.73;;;7.70;99.90;;;;;;5072866;28;20054;-83
2023/03/27 10:41:33;;;;;;;6.32;0.90;;;7.70;99.90;;;;;;5051927;28;20089;-85
2023/03/27 10:44:00;;;;;;;1.80;0.68;;;7.50;99.90;;;;;;5038815;28;20055;-84
2023/03/27 10:46:27;;;;;;;7.57;1.02;;;7.20;99.90;;;;;;5058147;28;20036;-83
2023/03/27 10:49:17;;;;;;;5.85;1.30;;;7.20;99.90;;;;;;5067698;28;20058;-82
2023/03/27 10:51:49;;;;;;;1.98;0.73;;;7.20;99.90;;;;;;5035905;28;20056;-83
2023/03/27 10:54:18;;;;;;;3.20;0.93;;;7.30;99.90;;;;;;5060651;28;20567;-83
2023/03/27 10:56:47;;;;;;;3.65;0.80;;;7.30;99.90;;;;;;5056840;28;20390;-84
2023/03/27 10:59:35;;;;;;;2.92;0.93;;;8.00;99.90;;;;;;5089185;28;20043;-84
2023/03/27 11:02:11;;;;;;;6.40;1.75;;;7.50;99.90;;;;;;5090637;28;20048;-84
2023/03/27 11:04:47;;;;;;;3.10;0.88;;;7.40;99.90;;;;;;5072536;28;20182;-84
2023/03/27 11:07:23;;;;;;;1.42;1.15;;;7.50;99.90;;;;;;5055573;28;20446;-83
2023/03/27 11:10:20;;;;;;;4.28;1.30;;;7.30;99.90;;;;;;5091375;28;20055;-83
2023/03/27 11:12:58;;;;;;;3.10;0.90;;;7.40;99.90;;;;;;5072668;28;20048;-83
2023/03/27 11:15:37;;;;;;;3.47;0.70;;;7.40;99.90;;;;;;5052240;28;20044;-84
2023/03/27 11:18:13;;;;;;;4.32;1.20;;;7.30;99.90;;;;;;5070664;28;20040;-83
2023/03/27 11:21:14;;;;;;;2.65;0.70;;;7.60;99.90;;;;;;5079058;28;20125;-84
2023/03/27 11:23:49;;;;;;;2.45;0.85;;;7.40;99.90;;;;;;5041069;28;20047;-84
2023/03/27 11:26:17;;;;;;;3.13;1.20;;;7.90;99.90;;;;;;5072144;28;20052;-84
2023/03/27 11:28:56;;;;;;;4.88;2.10;;;8.00;99.90;;;;;;5070101;28;20043;-83
2023/03/27 11:31:39;;;;;;;4.25;1.13;;;7.90;99.90;;;;;;5072105;28;20115;-83
2023/03/27 11:34:09;;;;;;;;;;;7.80;99.90;;;;;;5072620;28;20051;-82
2023/03/27 11:36:48;;;;;;;4.18;0.60;;;7.70;95.60;;;;;;5070871;28;19985;-83
2023/03/27 11:39:25;;;;;;;4.05;0.90;;;7.90;95.20;;;;;;5072056;28;20044;-84
2023/03/27 11:42:01;;;;;;;4.88;1.35;;;8.10;93.60;;;;;;5072647;28;20453;-80
2023/03/27 11:44:29;;;;;;;2.13;0.85;;;8.40;98.10;;;;;;5065950;28;20084;-82
2023/03/27 11:47:10;;;;;;;4.10;1.17;;;8.00;99.90;;;;;;5050231;28;20044;-83
2023/03/27 11:50:11;;;;;;;2.58;1.35;;;6.90;99.90;;;;;;5066213;28;20056;-84
2023/03/27 11:52:50;;;;;;;3.22;0.80;;;5.80;99.90;;;;;;5068732;28;20044;-82
2023/03/27 11:55:28;;;;;;;3.58;0.70;;;5.10;99.90;;;;;;5070844;28;20048;-83
2023/03/27 11:58:03;;;;;;;2.50;0.88;;;4.80;99.90;;;;;;5081192;28;20104;-84
2023/03/27 12:00:31;;;;;;;5.13;1.10;;;4.90;99.90;;;;;;5073289;28;20079;-85
2023/03/27 12:03:12;;;;;;;2.90;0.90;;;5.10;99.90;;;;;;5076243;28;20509;-85
2023/03/27 12:05:56;;;;;;;4.15;1.10;;;5.50;99.90;;;;;;5070036;28;20036;-85
2023/03/27 12:08:27;;;;;;;2.22;1.23;;;5.90;99.90;;;;;;5068273;28;20085;-85
2023/03/27 12:10:55;;;;;;;2.60;0.95;;;6.30;99.90;;;;;;5068768;28;20139;-85
2023/03/27 12:13:39;;;;;;;5.07;1.00;;;6.70;99.90;;;;;;5069026;28;20359;-84
2023/03/27 12:16:35;;;;;;;2.42;1.00;;;7.10;99.90;;;;;;5045865;28;20082;-85
2023/03/27 12:19:25;;;;;;;3.85;0.98;;;7.50;99.90;;;;;;5064423;28;20386;-84
2023/03/27 12:22:03;;;;;;;1.50;0.57;;;7.80;99.90;;;;;;5069624;28;20160;-84
2023/03/27 12:25:00;;;;;;;6.18;1.52;;;7.80;99.90;;;;;;5051446;28;20101;-83
2023/03/27 12:27:28;;;;;;;3.80;0.98;;;7.60;99.90;;;;;;5054764;28;20044;-84
2023/03/27 12:30:04;;;;;;;3.03;1.02;;;7.30;99.90;;;;;;5054326;28;20040;-85
2023/03/27 12:32:36;;;;;;;1.25;0.95;;;7.10;99.90;;;;;;5054924;28;20127;-83
2023/03/27 12:35:18;;;;;;;1.75;1.13;;;6.70;99.90;;;;;;5055099;28;20040;-83
2023/03/27 12:38:00;;;;;;;1.77;0.80;;;6.00;99.90;;;;;;5070467;28;20058;-83
2023/03/27 12:40:31;;;;;;;3.05;0.98;;;5.70;99.90;;;;;;5069397;28;20569;-80
2023/03/27 12:43:21;;;;;;;3.35;1.00;;;5.70;99.90;;;;;;5050200;28;20151;-83
2023/03/27 12:46:08;;;;;;;2.60;1.10;;;5.80;99.90;;;;;;5069257;28;20706;-83
2023/03/27 12:49:04;;;;;;;3.33;1.02;;;6.30;99.90;;;;;;5070929;28;20048;-84
2023/03/27 12:52:05;;;;;;;6.43;1.73;;;6.50;99.90;;;;;;5053585;28;20040;-84
2023/03/27 12:54:33;;;;;;;4.60;1.95;;;6.40;99.90;;;;;;5006484;28;20050;-83
2023/03/27 12:57:05;;;;;;;6.10;1.25;;;6.30;99.90;;;;;;5054843;28;20051;-83
2023/03/27 12:59:36;;;;;;;4.05;1.25;;;6.20;99.90;;;;;;5067144;28;20063;-83
2023/03/27 13:02:07;;;;;;;1.88;0.90;;;6.20;99.90;;;;;;5068596;28;20521;-83
2023/03/27 13:04:55;;;;;;;4.78;1.10;;;6.20;99.90;;;;;;5069055;28;20051;-83
2023/03/27 13:07:25;;;;;;;2.47;1.20;;;6.30;99.90;;;;;;5068536;28;20374;-82
2023/03/27 13:10:16;;;;;;;3.80;1.23;;;6.40;99.90;;;;;;5066330;28;20083;-82
2023/03/27 13:13:11;;;;;;;5.90;1.45;;;6.40;99.90;;;;;;5011026;28;20058;-82
2023/03/27 13:15:36;;;;;;;3.55;1.70;;;6.40;99.90;;;;;;5056443;28;20074;-83
2023/03/27 13:18:16;;;;;;;5.07;1.00;;;6.50;99.90;;;;;;5067474;28;20486;-83
2023/03/27 13:20:54;;;;;;;9.02;1.27;;;6.70;99.90;;;;;;5070927;28;20055;-82
2023/03/27 13:23:51;;;;;;;2.15;1.10;;;6.80;99.90;;;;;;5070702;28;20056;-84